Time;durP1;ratioP1;P1;durP2;ratioP2;P2;SDS_P1;SDS_P2;PMS_P1;PMS_P2;Temp;Humidity;BMP_temperature;BMP_pressure;BME280_temperature;BME280_humidity;BME280_pressure;Samples;Min_cycle;Max_cycle;Signal;HPM_P1;HPM_P2
2023/01/31 00:01:25;;;;;;;15.20;9.98;;;1.30;65.70;;;;;;5029596;28;20037;-61
2023/01/31 00:03:59;;;;;;;14.38;9.85;;;1.30;65.70;;;;;;5024148;28;20057;-47
2023/01/31 00:06:28;;;;;;;16.20;10.40;;;1.30;65.70;;;;;;5028662;28;20037;-48
2023/01/31 00:08:55;;;;;;;13.48;9.40;;;1.30;65.70;;;;;;5022684;28;20029;-58
2023/01/31 00:11:24;;;;;;;15.32;10.98;;;1.20;65.70;;;;;;5029151;28;20058;-58
2023/01/31 00:13:50;;;;;;;13.85;9.60;;;1.20;65.80;;;;;;5028505;28;20057;-59
2023/01/31 00:16:17;;;;;;;14.48;9.45;;;1.20;65.90;;;;;;5028190;28;20573;-59
2023/01/31 00:18:43;;;;;;;13.38;9.85;;;1.20;66.00;;;;;;5027877;28;20029;-58
2023/01/31 00:21:35;;;;;;;13.10;9.52;;;1.20;66.00;;;;;;5025989;28;20387;-59
2023/01/31 00:24:04;;;;;;;12.45;9.52;;;1.20;66.10;;;;;;5025776;28;20510;-59
2023/01/31 00:26:32;;;;;;;12.77;9.20;;;1.20;66.10;;;;;;5025758;28;20083;-60
2023/01/31 00:28:59;;;;;;;13.00;9.30;;;1.20;66.10;;;;;;5025112;28;20180;-57
2023/01/31 00:31:27;;;;;;;14.80;9.88;;;1.20;66.10;;;;;;5029134;28;20041;-57
2023/01/31 00:33:54;;;;;;;15.15;10.15;;;1.10;66.10;;;;;;5028005;28;20041;-57
2023/01/31 00:36:26;;;;;;;14.13;9.75;;;1.10;66.10;;;;;;5026053;28;20033;-57
2023/01/31 00:38:53;;;;;;;14.85;9.80;;;1.10;66.10;;;;;;5027802;28;20723;-57
2023/01/31 00:41:20;;;;;;;13.82;9.57;;;1.00;66.20;;;;;;5023376;28;20128;-59
2023/01/31 00:43:46;;;;;;;15.23;9.43;;;1.00;66.40;;;;;;5028276;28;20460;-61
2023/01/31 00:46:12;;;;;;;13.88;9.95;;;1.00;66.40;;;;;;5023784;28;20041;-62
2023/01/31 00:48:38;;;;;;;15.82;10.65;;;1.00;66.50;;;;;;5028562;28;20036;-62
2023/01/31 00:51:04;;;;;;;15.10;9.52;;;1.00;66.60;;;;;;5027484;28;20531;-61
2023/01/31 00:53:30;;;;;;;11.23;8.07;;;1.00;66.70;;;;;;5026720;28;20042;-59
2023/01/31 00:56:02;;;;;;;11.27;8.65;;;1.00;66.60;;;;;;5027846;28;20037;-58
2023/01/31 00:58:27;;;;;;;12.55;8.68;;;1.00;66.80;;;;;;5025312;28;20048;-58
2023/01/31 01:00:53;;;;;;;15.82;9.40;;;1.00;66.70;;;;;;5028951;28;20033;-61
2023/01/31 01:03:19;;;;;;;13.23;8.75;;;1.00;66.70;;;;;;5025680;28;20033;-63
2023/01/31 01:05:44;;;;;;;11.80;8.27;;;1.00;66.60;;;;;;5027464;28;20564;-59
2023/01/31 01:08:10;;;;;;;16.25;10.18;;;1.10;66.60;;;;;;5027509;28;20071;-59
2023/01/31 01:10:36;;;;;;;12.15;8.88;;;1.00;66.50;;;;;;5025515;28;20384;-53
2023/01/31 01:13:04;;;;;;;14.90;9.75;;;1.00;66.60;;;;;;5026407;28;20057;-53
2023/01/31 01:15:30;;;;;;;13.65;9.18;;;0.90;66.50;;;;;;5025882;28;20120;-48
2023/01/31 01:17:56;;;;;;;13.52;8.80;;;0.90;66.60;;;;;;5026905;28;20128;-46
2023/01/31 01:20:22;;;;;;;15.95;10.13;;;0.80;66.80;;;;;;5025554;28;20051;-61
2023/01/31 01:22:48;;;;;;;13.93;8.88;;;0.80;66.80;;;;;;5022551;28;20041;-62
2023/01/31 01:25:13;;;;;;;13.35;9.60;;;0.80;66.90;;;;;;5027091;28;20570;-60
2023/01/31 01:27:39;;;;;;;14.35;10.40;;;0.90;67.00;;;;;;5024274;28;20091;-61
2023/01/31 01:30:06;;;;;;;15.48;9.93;;;0.90;66.90;;;;;;5025986;28;20038;-61
2023/01/31 01:32:32;;;;;;;12.40;9.15;;;0.90;67.00;;;;;;5028689;28;20036;-62
2023/01/31 01:34:57;;;;;;;14.90;9.73;;;0.90;67.10;;;;;;5030402;28;20041;-62
2023/01/31 01:37:23;;;;;;;16.15;10.50;;;0.90;67.00;;;;;;5030592;28;20036;-61
2023/01/31 01:39:49;;;;;;;12.13;8.77;;;0.90;67.10;;;;;;5027785;28;20041;-62
2023/01/31 01:42:21;;;;;;;11.43;8.48;;;0.90;67.10;;;;;;5032373;28;20492;-50
2023/01/31 01:44:53;;;;;;;;;;;0.90;66.90;;;;;;5028430;28;20069;-49
2023/01/31 01:47:38;;;;;;;12.48;8.25;;;0.90;66.90;;;;;;5030999;28;19932;-61
2023/01/31 01:50:26;;;;;;;15.40;9.98;;;0.90;67.10;;;;;;5027667;28;20410;-61
2023/01/31 01:53:13;;;;;;;12.18;8.60;;;0.90;67.00;;;;;;5029019;28;20033;-53
2023/01/31 01:55:47;;;;;;;13.52;9.75;;;0.90;67.00;;;;;;5028301;28;20090;-60
2023/01/31 01:58:32;;;;;;;14.20;9.50;;;0.90;67.10;;;;;;5026355;28;20084;-59
2023/01/31 02:00:58;;;;;;;15.80;10.40;;;0.90;67.10;;;;;;5028462;28;20099;-59
2023/01/31 02:03:25;;;;;;;13.05;8.98;;;0.90;67.30;;;;;;5030915;28;20153;-59
2023/01/31 02:06:09;;;;;;;12.25;8.18;;;1.00;67.40;;;;;;5027251;28;20527;-57
2023/01/31 02:08:38;;;;;;;15.50;10.38;;;1.00;67.30;;;;;;5029899;28;20056;-57
2023/01/31 02:11:06;;;;;;;16.25;10.38;;;1.10;67.40;;;;;;5030015;28;20091;-60
2023/01/31 02:13:33;;;;;;;14.77;10.32;;;1.10;67.30;;;;;;5028939;28;20057;-60
2023/01/31 02:15:58;;;;;;;15.90;10.23;;;1.10;67.30;;;;;;5032316;28;20037;-59
2023/01/31 02:18:25;;;;;;;16.70;10.27;;;1.10;67.30;;;;;;5028595;28;20037;-58
2023/01/31 02:20:59;;;;;;;16.55;10.40;;;1.10;67.30;;;;;;5019718;28;20100;-57
2023/01/31 02:23:39;;;;;;;15.50;10.27;;;1.10;67.20;;;;;;5028682;28;20037;-56
2023/01/31 02:26:35;;;;;;;15.10;10.05;;;1.10;67.30;;;;;;5030315;28;20048;-50
2023/01/31 02:29:32;;;;;;;15.77;10.32;;;1.10;67.30;;;;;;5026771;28;20044;-51
2023/01/31 02:32:20;;;;;;;14.85;10.27;;;1.10;67.20;;;;;;5028527;28;20033;-61
2023/01/31 02:35:19;;;;;;;15.80;10.60;;;1.10;67.30;;;;;;5024126;28;20037;-62
2023/01/31 02:38:03;;;;;;;15.65;11.25;;;1.10;67.30;;;;;;5028789;28;20432;-61
2023/01/31 02:40:47;;;;;;;14.30;10.48;;;1.10;67.40;;;;;;5028300;28;20104;-60
2023/01/31 02:43:20;;;;;;;14.30;10.20;;;1.10;67.30;;;;;;5024720;28;20056;-60
2023/01/31 02:45:51;;;;;;;16.48;10.40;;;1.10;67.40;;;;;;5028718;28;20029;-59
2023/01/31 02:48:43;;;;;;;16.52;10.15;;;1.10;67.40;;;;;;5029710;28;20040;-58
2023/01/31 02:51:21;;;;;;;15.95;11.40;;;1.00;67.30;;;;;;5010499;28;20407;-58
2023/01/31 02:53:46;;;;;;;14.60;9.95;;;1.00;67.40;;;;;;5026963;28;20030;-58
2023/01/31 02:56:16;;;;;;;16.55;10.93;;;1.00;67.40;;;;;;5026738;28;20025;-62
2023/01/31 02:58:49;;;;;;;17.23;10.88;;;1.00;67.60;;;;;;5028599;28;20072;-62
2023/01/31 03:01:27;;;;;;;16.17;10.38;;;0.90;67.70;;;;;;5027962;28;20025;-58
2023/01/31 03:03:57;;;;;;;13.98;9.27;;;0.90;67.60;;;;;;5010448;28;20129;-59
2023/01/31 03:06:23;;;;;;;15.10;9.45;;;0.90;67.70;;;;;;5027637;28;20447;-49
2023/01/31 03:09:02;;;;;;;13.57;9.07;;;0.90;67.90;;;;;;5028646;28;20068;-52
2023/01/31 03:11:48;;;;;;;12.68;8.88;;;0.80;67.90;;;;;;5030392;28;20099;-59
2023/01/31 03:14:32;;;;;;;12.50;9.40;;;0.80;68.00;;;;;;5014909;28;20038;-56
2023/01/31 03:17:33;;;;;;;14.80;10.65;;;0.90;68.10;;;;;;5025069;28;20159;-59
2023/01/31 03:19:59;;;;;;;13.50;9.37;;;0.90;68.00;;;;;;5028950;28;20036;-58
2023/01/31 03:22:30;;;;;;;13.63;8.75;;;0.80;68.00;;;;;;5028048;28;20029;-57
2023/01/31 03:24:56;;;;;;;13.70;9.75;;;0.90;68.20;;;;;;5028672;28;20034;-58
2023/01/31 03:27:22;;;;;;;14.45;10.23;;;0.90;68.30;;;;;;5026697;28;20041;-59
2023/01/31 03:29:48;;;;;;;14.88;10.48;;;0.90;68.40;;;;;;5029852;28;20034;-59
2023/01/31 03:32:26;;;;;;;18.25;11.23;;;0.90;68.30;;;;;;5027499;28;20558;-51
2023/01/31 03:34:53;;;;;;;15.00;10.07;;;0.90;68.20;;;;;;5024738;28;20381;-48
2023/01/31 03:37:39;;;;;;;15.23;10.35;;;0.90;68.20;;;;;;5028972;28;20111;-63
2023/01/31 03:40:40;;;;;;;16.10;10.13;;;0.90;68.20;;;;;;5025662;28;20405;-61
2023/01/31 03:43:26;;;;;;;14.20;9.43;;;0.90;68.20;;;;;;5023680;28;20096;-59
2023/01/31 03:46:03;;;;;;;13.50;9.73;;;0.90;68.20;;;;;;5026772;28;20391;-52
2023/01/31 03:48:34;;;;;;;15.57;10.13;;;0.90;68.20;;;;;;5029728;28;20037;-49
2023/01/31 03:51:05;;;;;;;14.20;9.95;;;0.90;68.30;;;;;;5021905;28;20099;-58
2023/01/31 03:53:42;;;;;;;14.27;9.93;;;0.90;68.40;;;;;;5028800;28;20029;-58
2023/01/31 03:56:19;;;;;;;14.95;10.00;;;0.90;68.40;;;;;;5024663;28;20052;-59
2023/01/31 03:58:49;;;;;;;14.85;10.10;;;0.90;68.50;;;;;;5026985;28;20116;-56
2023/01/31 04:01:17;;;;;;;17.33;10.02;;;0.80;68.80;;;;;;5025726;28;20425;-61
2023/01/31 04:04:02;;;;;;;14.77;9.90;;;0.80;68.60;;;;;;5027624;28;20108;-62
2023/01/31 04:06:28;;;;;;;16.48;10.65;;;0.80;68.70;;;;;;5027534;28;20034;-62
2023/01/31 04:08:54;;;;;;;17.70;11.13;;;0.80;68.70;;;;;;5026123;28;20048;-60
2023/01/31 04:11:23;;;;;;;17.38;11.15;;;0.80;68.90;;;;;;5028350;28;20361;-60
2023/01/31 04:13:49;;;;;;;15.50;10.88;;;0.80;68.90;;;;;;5026199;28;20034;-59
2023/01/31 04:16:15;;;;;;;17.02;11.00;;;0.90;69.00;;;;;;5019034;28;20151;-61
2023/01/31 04:18:40;;;;;;;16.40;10.70;;;0.80;69.00;;;;;;5027129;28;20060;-61
2023/01/31 04:21:06;;;;;;;16.67;11.52;;;0.90;69.00;;;;;;5026499;28;20080;-60
2023/01/31 04:23:32;;;;;;;18.83;11.15;;;0.90;69.10;;;;;;5026019;28;20025;-58
2023/01/31 04:25:57;;;;;;;20.38;12.32;;;0.90;69.10;;;;;;5026556;28;20124;-62
2023/01/31 04:28:23;;;;;;;17.70;11.00;;;0.90;69.20;;;;;;5028097;28;20120;-60
2023/01/31 04:30:53;;;;;;;18.38;12.20;;;0.90;69.40;;;;;;5027396;28;20083;-60
2023/01/31 04:33:19;;;;;;;20.67;12.73;;;0.90;69.70;;;;;;5026972;28;20026;-63
2023/01/31 04:35:45;;;;;;;18.38;12.52;;;0.90;69.80;;;;;;5027657;28;20033;-58
2023/01/31 04:38:11;;;;;;;19.52;12.48;;;0.90;69.90;;;;;;5023473;28;20456;-58
2023/01/31 04:40:36;;;;;;;17.02;11.75;;;0.90;70.10;;;;;;5027942;28;20091;-49
2023/01/31 04:43:02;;;;;;;18.98;12.70;;;0.90;70.20;;;;;;5021790;28;20036;-51
2023/01/31 04:45:28;;;;;;;19.52;13.00;;;0.90;70.30;;;;;;5026379;28;20037;-59
2023/01/31 04:47:53;;;;;;;19.35;12.60;;;1.00;70.40;;;;;;5025507;28;20033;-60
2023/01/31 04:50:19;;;;;;;16.83;12.07;;;1.00;70.50;;;;;;5027397;28;20087;-47
2023/01/31 04:52:48;;;;;;;20.02;12.68;;;1.10;70.70;;;;;;5027131;28;20028;-54
2023/01/31 04:55:13;;;;;;;21.70;13.70;;;1.10;70.70;;;;;;5025843;28;20037;-47
2023/01/31 04:57:39;;;;;;;18.15;12.43;;;1.20;70.70;;;;;;5022003;28;20044;-52
2023/01/31 05:00:05;;;;;;;16.92;11.80;;;1.20;70.90;;;;;;5022364;28;20029;-52
2023/01/31 05:02:31;;;;;;;19.25;13.20;;;1.20;70.90;;;;;;5025591;28;20029;-47
2023/01/31 05:04:56;;;;;;;18.85;13.15;;;1.20;70.80;;;;;;5025976;28;20128;-48
2023/01/31 05:07:22;;;;;;;19.88;13.20;;;1.20;70.80;;;;;;5030619;28;20045;-60
2023/01/31 05:09:48;;;;;;;24.23;13.93;;;1.20;70.90;;;;;;5031394;28;20087;-60
2023/01/31 05:12:13;;;;;;;23.73;14.65;;;1.30;71.10;;;;;;5030985;28;20046;-55
2023/01/31 05:14:39;;;;;;;21.70;14.88;;;1.30;71.10;;;;;;5029982;28;20411;-51
2023/01/31 05:17:05;;;;;;;21.75;14.32;;;1.30;71.10;;;;;;5027023;28;20033;-52
2023/01/31 05:19:31;;;;;;;20.75;13.35;;;1.30;71.10;;;;;;5025170;28;20033;-57
2023/01/31 05:21:59;;;;;;;19.48;13.73;;;1.30;71.80;;;;;;5025219;28;20034;-53
2023/01/31 05:24:28;;;;;;;19.25;12.38;;;1.30;71.10;;;;;;5023869;28;20080;-55
2023/01/31 05:26:57;;;;;;;18.60;12.40;;;1.30;71.30;;;;;;5027219;28;20042;-51
2023/01/31 05:29:27;;;;;;;20.50;13.20;;;1.30;71.30;;;;;;5027476;28;20026;-51
2023/01/31 05:31:55;;;;;;;18.73;12.98;;;1.40;71.40;;;;;;5024860;28;20034;-59
2023/01/31 05:34:21;;;;;;;17.25;12.30;;;1.40;71.50;;;;;;5030751;28;20025;-59
2023/01/31 05:36:47;;;;;;;19.73;13.52;;;1.40;71.40;;;;;;5028408;28;20033;-60
2023/01/31 05:39:13;;;;;;;21.50;13.82;;;1.40;71.40;;;;;;5031131;28;20281;-59
2023/01/31 05:41:39;;;;;;;19.73;13.48;;;1.40;71.40;;;;;;5030459;28;20037;-60
2023/01/31 05:44:04;;;;;;;20.33;13.65;;;1.40;71.40;;;;;;5030249;28;20487;-58
2023/01/31 05:46:30;;;;;;;23.75;15.15;;;1.40;71.40;;;;;;5025549;28;20026;-60
2023/01/31 05:48:56;;;;;;;22.33;15.00;;;1.40;71.40;;;;;;5030233;28;20069;-58
2023/01/31 05:51:21;;;;;;;25.13;16.50;;;1.40;71.40;;;;;;5029087;28;20032;-59
2023/01/31 05:53:47;;;;;;;21.88;14.82;;;1.40;71.40;;;;;;5029865;28;20029;-60
2023/01/31 05:56:13;;;;;;;23.08;14.95;;;1.40;71.50;;;;;;5016439;28;20476;-55
2023/01/31 05:58:39;;;;;;;23.95;15.27;;;1.40;71.50;;;;;;5028983;28;20045;-59
2023/01/31 06:01:05;;;;;;;23.60;14.45;;;1.40;71.70;;;;;;5025768;28;20672;-60
2023/01/31 06:03:30;;;;;;;21.33;14.77;;;1.40;71.70;;;;;;5028166;28;20387;-59
2023/01/31 06:05:56;;;;;;;20.40;13.60;;;1.50;71.80;;;;;;5031568;28;20045;-58
2023/01/31 06:08:21;;;;;;;21.63;13.93;;;1.40;71.80;;;;;;5028330;28;20040;-61
2023/01/31 06:10:47;;;;;;;21.70;13.55;;;1.40;71.80;;;;;;5029536;28;20056;-60
2023/01/31 06:13:13;;;;;;;22.08;13.23;;;1.50;72.00;;;;;;5031127;28;20128;-59
2023/01/31 06:15:42;;;;;;;18.52;12.70;;;1.50;72.10;;;;;;5032123;28;20057;-62
2023/01/31 06:18:08;;;;;;;22.75;14.48;;;1.50;72.10;;;;;;5029564;28;20033;-62
2023/01/31 06:20:33;;;;;;;20.25;13.18;;;1.50;72.10;;;;;;5030435;28;20080;-62
2023/01/31 06:23:00;;;;;;;24.08;13.75;;;1.50;72.70;;;;;;5025850;28;20025;-61
2023/01/31 06:25:26;;;;;;;21.67;15.43;;;1.60;72.20;;;;;;5025446;28;20033;-61
2023/01/31 06:27:54;;;;;;;21.75;14.27;;;1.60;72.20;;;;;;5029410;28;20088;-61
2023/01/31 06:30:19;;;;;;;19.45;13.00;;;1.60;72.40;;;;;;5024742;28;20036;-60
2023/01/31 06:32:45;;;;;;;24.02;14.98;;;1.60;72.40;;;;;;5028932;28;20029;-60
2023/01/31 06:35:11;;;;;;;23.40;14.63;;;1.60;72.20;;;;;;5028998;28;20118;-60
2023/01/31 06:37:36;;;;;;;20.38;13.75;;;1.60;72.30;;;;;;5021348;28;20037;-63
2023/01/31 06:40:02;;;;;;;26.13;16.05;;;1.70;72.40;;;;;;5028247;28;20819;-62
2023/01/31 06:42:28;;;;;;;18.33;13.07;;;1.70;72.50;;;;;;5028685;28;20026;-60
2023/01/31 06:44:53;;;;;;;19.00;12.68;;;1.70;72.60;;;;;;5028585;28;20029;-61
2023/01/31 06:47:19;;;;;;;22.27;14.25;;;1.70;72.70;;;;;;5028712;28;20033;-60
2023/01/31 06:49:44;;;;;;;23.08;14.93;;;1.70;72.70;;;;;;5021359;28;20468;-61
2023/01/31 06:52:10;;;;;;;18.42;13.95;;;1.80;72.60;;;;;;5022302;28;20072;-60
2023/01/31 06:54:36;;;;;;;22.75;15.10;;;1.80;72.50;;;;;;5018073;28;20091;-60
2023/01/31 06:57:01;;;;;;;25.17;15.65;;;1.80;72.50;;;;;;5011756;28;20029;-60
2023/01/31 06:59:27;;;;;;;23.90;16.08;;;1.90;72.50;;;;;;5016081;28;20053;-61
2023/01/31 07:01:52;;;;;;;18.77;14.55;;;1.90;72.50;;;;;;5020005;28;20392;-60
2023/01/31 07:04:18;;;;;;;22.85;15.27;;;1.90;72.60;;;;;;5004666;28;20030;-60
2023/01/31 07:06:43;;;;;;;21.08;14.40;;;2.00;72.70;;;;;;5025207;28;20091;-60
2023/01/31 07:09:10;;;;;;;24.02;16.40;;;2.00;72.60;;;;;;5019241;28;20037;-58
2023/01/31 07:11:37;;;;;;;24.42;15.88;;;2.10;72.50;;;;;;5015576;28;20061;-56
2023/01/31 07:14:03;;;;;;;22.95;14.77;;;2.10;72.30;;;;;;5020181;28;20072;-56
2023/01/31 07:16:29;;;;;;;22.90;14.52;;;2.20;72.50;;;;;;5020601;28;20041;-53
2023/01/31 07:18:55;;;;;;;20.23;13.52;;;2.30;72.40;;;;;;5012973;28;20029;-55
2023/01/31 07:21:23;;;;;;;23.30;14.95;;;2.30;72.20;;;;;;5018631;28;20025;-51
2023/01/31 07:23:49;;;;;;;21.65;13.95;;;2.30;72.10;;;;;;5014368;28;20113;-55
2023/01/31 07:26:15;;;;;;;24.58;14.80;;;2.30;71.90;;;;;;5015343;28;20475;-62
2023/01/31 07:28:40;;;;;;;22.67;15.93;;;2.40;72.00;;;;;;5012290;28;20091;-62
2023/01/31 07:31:10;;;;;;;22.05;13.85;;;2.40;71.80;;;;;;5010312;28;20029;-62
2023/01/31 07:33:36;;;;;;;22.00;15.10;;;2.40;71.80;;;;;;5011657;28;20040;-62
2023/01/31 07:36:03;;;;;;;21.52;14.13;;;2.40;71.90;;;;;;5017670;28;20538;-63
2023/01/31 07:38:30;;;;;;;19.05;13.27;;;2.40;72.10;;;;;;5008193;28;20392;-62
2023/01/31 07:41:03;;;;;;;22.10;14.48;;;2.40;72.00;;;;;;5010443;28;20041;-62
2023/01/31 07:43:30;;;;;;;22.27;14.10;;;2.50;71.90;;;;;;5008463;28;20045;-61
2023/01/31 07:45:56;;;;;;;21.20;14.25;;;2.40;71.80;;;;;;5010779;28;20041;-62
2023/01/31 07:48:24;;;;;;;21.35;13.63;;;2.50;71.80;;;;;;5007510;28;20044;-61
2023/01/31 07:50:51;;;;;;;21.65;14.15;;;2.50;71.90;;;;;;5011466;28;20419;-61
2023/01/31 07:53:18;;;;;;;21.05;14.10;;;2.50;72.00;;;;;;5011085;28;20117;-62
2023/01/31 07:55:46;;;;;;;18.50;12.52;;;2.60;72.10;;;;;;5017101;28;20033;-62
2023/01/31 07:58:13;;;;;;;19.85;12.82;;;2.60;72.20;;;;;;5008633;28;20089;-61
2023/01/31 08:03:32;;;;;;;21.90;13.15;;;2.70;72.30;;;;;;5015922;28;20116;-64
2023/01/31 08:06:03;;;;;;;23.67;14.95;;;2.80;72.40;;;;;;5017769;28;20034;-64
2023/01/31 08:08:30;;;;;;;19.27;12.80;;;2.90;72.20;;;;;;5019765;28;20465;-63
2023/01/31 08:10:56;;;;;;;19.65;13.38;;;3.00;72.10;;;;;;5011029;28;20033;-61
2023/01/31 08:13:22;;;;;;;19.70;14.25;;;3.00;72.10;;;;;;5009559;28;20060;-62
2023/01/31 08:15:51;;;;;;;21.60;14.00;;;3.10;71.90;;;;;;5018237;28;20176;-60
2023/01/31 08:18:16;;;;;;;22.38;14.50;;;3.20;71.60;;;;;;5017846;28;20029;-59
2023/01/31 08:20:42;;;;;;;22.77;14.38;;;3.20;71.30;;;;;;5013042;28;20270;-64
2023/01/31 08:23:08;;;;;;;20.63;14.27;;;3.30;71.30;;;;;;5016428;28;20045;-63
2023/01/31 08:25:35;;;;;;;25.98;15.35;;;3.30;71.40;;;;;;5013724;28;20037;-63
2023/01/31 08:28:01;;;;;;;24.98;16.38;;;3.30;71.20;;;;;;5021893;28;20072;-61
2023/01/31 08:30:27;;;;;;;21.40;14.00;;;3.40;71.20;;;;;;5015927;28;20673;-60
2023/01/31 08:32:53;;;;;;;24.13;14.75;;;3.40;71.30;;;;;;5012589;28;20052;-62
2023/01/31 08:35:19;;;;;;;20.33;13.45;;;3.40;71.30;;;;;;5009311;28;20044;-62
2023/01/31 08:37:45;;;;;;;19.77;13.25;;;3.40;71.50;;;;;;5015165;28;20569;-63
2023/01/31 08:40:13;;;;;;;20.17;13.68;;;3.40;71.20;;;;;;5008836;28;20064;-62
2023/01/31 08:42:39;;;;;;;18.05;13.13;;;3.50;71.50;;;;;;5010681;28;20519;-62
2023/01/31 08:45:06;;;;;;;21.23;14.10;;;3.50;71.70;;;;;;5014726;28;20037;-60
2023/01/31 08:47:32;;;;;;;19.33;13.77;;;3.60;71.80;;;;;;5018960;28;20060;-62
2023/01/31 08:49:58;;;;;;;24.48;15.70;;;3.60;71.70;;;;;;5014042;28;20037;-61
2023/01/31 08:52:23;;;;;;;22.33;15.00;;;3.70;72.20;;;;;;4995504;28;20040;-62
2023/01/31 08:54:49;;;;;;;22.60;14.50;;;3.80;71.30;;;;;;5017791;28;20021;-66
2023/01/31 08:57:14;;;;;;;21.83;13.95;;;3.90;71.90;;;;;;5009178;28;20026;-60
2023/01/31 08:59:40;;;;;;;21.77;14.50;;;3.90;70.80;;;;;;5012417;28;20037;-65
2023/01/31 09:02:08;;;;;;;21.67;13.52;;;3.90;70.70;;;;;;5003657;28;20052;-65
2023/01/31 09:04:34;;;;;;;20.63;14.43;;;3.90;70.60;;;;;;5011193;28;20025;-61
2023/01/31 09:07:00;;;;;;;20.65;14.35;;;3.90;70.50;;;;;;5014099;28;20881;-61
2023/01/31 09:09:25;;;;;;;19.55;13.82;;;3.90;70.70;;;;;;5012446;28;20115;-61
2023/01/31 09:11:51;;;;;;;23.33;15.05;;;3.90;70.70;;;;;;5008222;28;20078;-61
2023/01/31 09:14:16;;;;;;;23.88;16.33;;;3.90;70.80;;;;;;5008773;28;20131;-60
2023/01/31 09:16:44;;;;;;;21.98;15.13;;;4.00;70.80;;;;;;5005444;28;20521;-62
2023/01/31 09:19:10;;;;;;;20.85;14.60;;;4.10;70.80;;;;;;5011792;28;22574;-61
2023/01/31 09:21:35;;;;;;;19.15;14.05;;;4.10;70.80;;;;;;5011520;28;20116;-61
2023/01/31 09:24:02;;;;;;;18.73;13.60;;;4.10;70.70;;;;;;5012024;28;20039;-60
2023/01/31 09:26:28;;;;;;;22.10;16.45;;;4.10;70.80;;;;;;5010651;28;20044;-60
2023/01/31 09:28:55;;;;;;;21.38;15.13;;;4.10;70.90;;;;;;5005928;28;21730;-61
2023/01/31 09:31:20;;;;;;;21.17;14.63;;;4.10;70.80;;;;;;5005967;28;20060;-63
2023/01/31 09:33:46;;;;;;;23.73;15.40;;;4.10;71.00;;;;;;5011512;28;20056;-64
2023/01/31 09:36:17;;;;;;;23.35;15.48;;;4.10;70.90;;;;;;5005460;28;20368;-62
2023/01/31 09:38:44;;;;;;;21.67;15.93;;;4.10;70.80;;;;;;5006475;28;20116;-63
2023/01/31 09:41:32;;;;;;;23.90;16.27;;;4.20;70.80;;;;;;5006687;28;20282;-64
2023/01/31 09:44:03;;;;;;;28.33;18.05;;;4.20;70.60;;;;;;5006041;28;20030;-62
2023/01/31 09:46:35;;;;;;;25.20;16.23;;;4.30;70.60;;;;;;5005926;28;20368;-61
2023/01/31 09:49:02;;;;;;;;;;;4.30;70.60;;;;;;5012801;28;20570;-61
2023/01/31 09:51:28;;;;;;;21.20;15.48;;;4.30;70.50;;;;;;5015460;28;20007;-63
2023/01/31 09:53:55;;;;;;;24.10;14.60;;;4.30;70.70;;;;;;5012970;28;20108;-57
2023/01/31 09:57:10;;;;;;;19.75;15.07;;;4.30;70.90;;;;;;5010538;28;20033;-56
2023/01/31 09:59:42;;;;;;;23.10;16.02;;;4.30;70.90;;;;;;4976561;28;20438;-53
2023/01/31 10:02:14;;;;;;;;;;;4.30;71.20;;;;;;5013641;28;20033;-61
2023/01/31 10:05:16;;;;;;;21.17;15.27;;;4.30;71.20;;;;;;5014182;28;19916;-63
2023/01/31 10:07:58;;;;;;;21.35;16.08;;;4.40;71.10;;;;;;5012957;28;20042;-51
2023/01/31 10:10:35;;;;;;;24.13;17.48;;;4.50;71.70;;;;;;5008939;28;20061;-58
2023/01/31 10:13:10;;;;;;;22.95;16.33;;;4.50;71.10;;;;;;5010225;28;20084;-57
2023/01/31 10:15:46;;;;;;;20.13;14.23;;;4.50;71.10;;;;;;5010199;28;20029;-55
2023/01/31 10:18:23;;;;;;;20.60;14.93;;;4.50;71.00;;;;;;5006695;28;20549;-54
2023/01/31 10:20:50;;;;;;;23.25;15.80;;;4.50;71.20;;;;;;4992994;28;20063;-57
2023/01/31 10:23:28;;;;;;;23.08;15.68;;;4.50;71.50;;;;;;5016281;28;20238;-54
2023/01/31 10:26:01;;;;;;;24.27;15.52;;;4.60;71.20;;;;;;5014680;28;20041;-53
2023/01/31 10:28:31;;;;;;;23.35;15.73;;;4.60;71.10;;;;;;5017433;28;20061;-55
2023/01/31 10:31:30;;;;;;;26.83;16.55;;;4.70;71.00;;;;;;5016977;28;20048;-52
2023/01/31 10:34:14;;;;;;;22.75;15.55;;;4.80;70.60;;;;;;5017309;28;20128;-54
2023/01/31 10:36:48;;;;;;;21.98;14.98;;;4.90;70.40;;;;;;5013079;28;20742;-50
2023/01/31 10:39:29;;;;;;;22.52;14.85;;;4.90;70.10;;;;;;5017385;28;20111;-53
2023/01/31 10:42:01;;;;;;;21.77;15.07;;;4.90;69.90;;;;;;5015801;28;20030;-58
2023/01/31 10:44:56;;;;;;;24.63;15.65;;;4.90;69.90;;;;;;5014963;28;20029;-56
2023/01/31 10:47:33;;;;;;;21.23;14.38;;;4.90;69.80;;;;;;5013465;28;20558;-56
2023/01/31 10:49:58;;;;;;;20.70;15.00;;;4.90;69.80;;;;;;5011484;28;20040;-55
2023/01/31 10:52:48;;;;;;;22.65;15.80;;;4.90;69.90;;;;;;5015926;28;20033;-56
2023/01/31 10:55:45;;;;;;;22.92;16.35;;;5.00;70.00;;;;;;5013731;28;20488;-52
2023/01/31 10:58:16;;;;;;;23.95;15.90;;;5.00;70.00;;;;;;5017726;28;20033;-51
2023/01/31 11:00:43;;;;;;;21.73;14.63;;;5.10;70.00;;;;;;5014507;28;20145;-54
2023/01/31 11:03:12;;;;;;;22.42;15.63;;;5.10;70.10;;;;;;5016832;28;20061;-54
2023/01/31 11:06:05;;;;;;;21.42;15.25;;;5.20;70.10;;;;;;5015060;28;20037;-54
2023/01/31 11:08:41;;;;;;;21.88;15.10;;;5.20;70.10;;;;;;5016363;28;20116;-55
2023/01/31 11:11:09;;;;;;;23.25;16.30;;;5.10;70.40;;;;;;5017832;28;20121;-49
2023/01/31 11:13:35;;;;;;;23.75;16.67;;;5.10;70.50;;;;;;5013006;28;20415;-54
2023/01/31 11:16:03;;;;;;;24.58;16.40;;;5.10;70.40;;;;;;5014517;28;20041;-53
2023/01/31 11:18:44;;;;;;;26.02;16.23;;;5.10;70.40;;;;;;5016847;28;20065;-53
2023/01/31 11:21:20;;;;;;;20.30;15.10;;;5.20;70.40;;;;;;5011698;28;20424;-55
2023/01/31 11:23:45;;;;;;;21.88;16.48;;;5.20;70.30;;;;;;5015628;28;20048;-51
2023/01/31 11:26:14;;;;;;;21.83;14.80;;;5.30;70.20;;;;;;5010417;28;20480;-61
2023/01/31 11:28:40;;;;;;;20.67;14.43;;;5.30;70.20;;;;;;5016342;28;20034;-61
2023/01/31 11:31:18;;;;;;;22.15;15.10;;;5.30;70.30;;;;;;5011491;28;20084;-60
2023/01/31 11:33:55;;;;;;;23.08;15.32;;;5.30;70.20;;;;;;5017077;28;20029;-60
2023/01/31 11:36:25;;;;;;;19.83;14.07;;;5.20;70.40;;;;;;5016088;28;20037;-61
2023/01/31 11:38:51;;;;;;;23.25;16.73;;;5.20;70.80;;;;;;5015083;28;20030;-60
2023/01/31 11:41:28;;;;;;;20.30;14.95;;;5.20;71.00;;;;;;5016580;28;20034;-60
2023/01/31 11:44:07;;;;;;;21.85;15.27;;;5.20;71.10;;;;;;5018281;28;20034;-60
2023/01/31 11:46:54;;;;;;;23.65;16.17;;;5.20;71.00;;;;;;5018585;28;20112;-58
2023/01/31 11:49:32;;;;;;;25.70;16.23;;;5.30;70.70;;;;;;5009485;28;20045;-60
2023/01/31 11:52:18;;;;;;;27.17;17.33;;;5.30;70.40;;;;;;5013500;28;20049;-59
2023/01/31 11:55:04;;;;;;;26.33;17.25;;;5.30;70.10;;;;;;5018705;28;20067;-59
2023/01/31 11:57:37;;;;;;;27.27;16.80;;;5.30;70.00;;;;;;5017112;28;20132;-61
2023/01/31 12:00:46;;;;;;;24.70;16.52;;;5.30;69.80;;;;;;5012491;28;20036;-61
2023/01/31 12:03:16;;;;;;;25.38;17.58;;;5.30;70.00;;;;;;4998355;28;20045;-61
2023/01/31 12:05:45;;;;;;;25.65;16.83;;;5.30;69.70;;;;;;5011306;28;20041;-61
2023/01/31 12:08:36;;;;;;;25.83;18.10;;;5.30;69.80;;;;;;5015227;28;20046;-61
2023/01/31 12:11:17;;;;;;;26.37;18.30;;;5.30;69.80;;;;;;5014797;28;20109;-61
2023/01/31 12:13:51;;;;;;;26.33;18.55;;;5.30;69.90;;;;;;5006649;28;20053;-62
2023/01/31 12:16:24;;;;;;;27.95;18.02;;;5.30;70.00;;;;;;5011003;28;20049;-61
2023/01/31 12:19:01;;;;;;;24.30;16.10;;;5.30;70.00;;;;;;5011273;28;20388;-61
2023/01/31 12:21:56;;;;;;;27.15;17.42;;;5.30;70.10;;;;;;5018324;28;20056;-59
2023/01/31 12:24:33;;;;;;;21.95;16.02;;;5.40;70.00;;;;;;4947528;28;20043;-60
2023/01/31 12:27:18;;;;;;;23.70;16.55;;;5.40;69.90;;;;;;5013528;28;20044;-60
2023/01/31 12:30:09;;;;;;;22.48;14.90;;;5.40;69.80;;;;;;5018944;28;20029;-61
2023/01/31 12:32:54;;;;;;;;;;;5.40;69.90;;;;;;5010086;28;20033;-60
2023/01/31 12:35:28;;;;;;;21.80;14.02;;;5.30;70.00;;;;;;5019664;28;19913;-61
2023/01/31 12:38:31;;;;;;;21.55;15.07;;;5.30;70.10;;;;;;5014338;28;20041;-62
2023/01/31 12:41:21;;;;;;;26.52;17.00;;;5.20;70.40;;;;;;5010823;28;20045;-61
2023/01/31 12:44:17;;;;;;;24.95;16.73;;;5.20;70.40;;;;;;5010280;28;20041;-60
2023/01/31 12:46:54;;;;;;;25.63;17.45;;;5.30;70.40;;;;;;5008863;28;20044;-61
2023/01/31 12:49:37;;;;;;;25.17;17.02;;;5.30;70.30;;;;;;5005698;28;20072;-61
2023/01/31 12:52:23;;;;;;;27.83;17.52;;;5.30;70.30;;;;;;5009856;28;20037;-60
2023/01/31 12:54:55;;;;;;;26.45;18.40;;;5.30;70.40;;;;;;5010497;28;20372;-60
2023/01/31 12:57:39;;;;;;;29.17;19.23;;;5.30;70.30;;;;;;5006592;28;20048;-61
2023/01/31 13:00:31;;;;;;;26.65;18.08;;;5.30;70.30;;;;;;5012198;28;20407;-60
2023/01/31 13:03:23;;;;;;;28.33;18.77;;;5.20;70.20;;;;;;5004643;28;20036;-60
2023/01/31 13:05:56;;;;;;;25.60;17.45;;;5.20;70.20;;;;;;5013227;28;20221;-60